sensor_id;sensor_type;location;lat;lon;timestamp;P1;durP1;ratioP1;P2;durP2;ratioP2
12151;SDS011;6139;51.274;7.128;2023-04-29T00:00:01;22.55;;;17.63;;
12151;SDS011;6139;51.274;7.128;2023-04-29T00:01:13;22.95;;;17.55;;
12151;SDS011;6139;51.274;7.128;2023-04-29T00:02:14;23.05;;;18.63;;
12151;SDS011;6139;51.274;7.128;2023-04-29T00:03:15;22.88;;;18.42;;
12151;SDS011;6139;51.274;7.128;2023-04-29T00:04:18;24.35;;;18.15;;
12151;SDS011;6139;51.274;7.128;2023-04-29T00:05:20;23.00;;;17.67;;
12151;SDS011;6139;51.274;7.128;2023-04-29T00:06:21;22.30;;;17.85;;
12151;SDS011;6139;51.274;7.128;2023-04-29T00:07:23;23.52;;;16.92;;
12151;SDS011;6139;51.274;7.128;2023-04-29T00:08:24;22.33;;;18.08;;
12151;SDS011;6139;51.274;7.128;2023-04-29T00:09:27;24.40;;;18.05;;
12151;SDS011;6139;51.274;7.128;2023-04-29T00:10:28;22.20;;;17.20;;
12151;SDS011;6139;51.274;7.128;2023-04-29T00:11:30;22.08;;;16.80;;
12151;SDS011;6139;51.274;7.128;2023-04-29T00:12:31;19.30;;;16.20;;
12151;SDS011;6139;51.274;7.128;2023-04-29T00:13:33;21.50;;;16.08;;
12151;SDS011;6139;51.274;7.128;2023-04-29T00:14:34;20.13;;;16.65;;
12151;SDS011;6139;51.274;7.128;2023-04-29T00:15:37;20.65;;;16.38;;
12151;SDS011;6139;51.274;7.128;2023-04-29T00:16:38;23.23;;;17.50;;
12151;SDS011;6139;51.274;7.128;2023-04-29T00:17:40;22.48;;;17.95;;
12151;SDS011;6139;51.274;7.128;2023-04-29T00:18:41;23.65;;;18.08;;
12151;SDS011;6139;51.274;7.128;2023-04-29T00:19:42;22.85;;;17.60;;
12151;SDS011;6139;51.274;7.128;2023-04-29T00:20:44;21.77;;;16.85;;
12151;SDS011;6139;51.274;7.128;2023-04-29T00:21:46;22.40;;;16.98;;
12151;SDS011;6139;51.274;7.128;2023-04-29T00:22:47;22.10;;;17.40;;
12151;SDS011;6139;51.274;7.128;2023-04-29T00:23:49;21.63;;;17.27;;
12151;SDS011;6139;51.274;7.128;2023-04-29T00:24:51;25.70;;;20.08;;
12151;SDS011;6139;51.274;7.128;2023-04-29T00:25:53;29.23;;;21.40;;
12151;SDS011;6139;51.274;7.128;2023-04-29T00:26:54;28.70;;;21.33;;
12151;SDS011;6139;51.274;7.128;2023-04-29T00:27:56;31.42;;;22.65;;
12151;SDS011;6139;51.274;7.128;2023-04-29T00:29:01;30.88;;;23.15;;
12151;SDS011;6139;51.274;7.128;2023-04-29T00:30:03;35.13;;;25.23;;
12151;SDS011;6139;51.274;7.128;2023-04-29T00:31:05;34.70;;;25.75;;
12151;SDS011;6139;51.274;7.128;2023-04-29T00:32:07;34.10;;;26.15;;
12151;SDS011;6139;51.274;7.128;2023-04-29T00:33:08;38.78;;;26.75;;
12151;SDS011;6139;51.274;7.128;2023-04-29T00:34:11;34.08;;;25.42;;
12151;SDS011;6139;51.274;7.128;2023-04-29T00:35:12;35.67;;;26.60;;
12151;SDS011;6139;51.274;7.128;2023-04-29T00:36:14;37.35;;;25.52;;
12151;SDS011;6139;51.274;7.128;2023-04-29T00:37:15;36.25;;;26.92;;
12151;SDS011;6139;51.274;7.128;2023-04-29T00:38:17;35.60;;;27.45;;
12151;SDS011;6139;51.274;7.128;2023-04-29T00:39:18;38.53;;;26.33;;
12151;SDS011;6139;51.274;7.128;2023-04-29T00:40:21;35.05;;;25.55;;
12151;SDS011;6139;51.274;7.128;2023-04-29T00:41:22;34.13;;;25.80;;
12151;SDS011;6139;51.274;7.128;2023-04-29T00:42:24;36.28;;;26.00;;
12151;SDS011;6139;51.274;7.128;2023-04-29T00:43:26;35.58;;;26.35;;
12151;SDS011;6139;51.274;7.128;2023-04-29T00:44:28;35.75;;;26.33;;
12151;SDS011;6139;51.274;7.128;2023-04-29T00:45:29;32.92;;;24.30;;
12151;SDS011;6139;51.274;7.128;2023-04-29T00:46:31;37.53;;;26.35;;
12151;SDS011;6139;51.274;7.128;2023-04-29T00:47:32;35.38;;;26.25;;
12151;SDS011;6139;51.274;7.128;2023-04-29T00:48:34;32.72;;;24.70;;
12151;SDS011;6139;51.274;7.128;2023-04-29T00:49:37;32.28;;;24.75;;
12151;SDS011;6139;51.274;7.128;2023-04-29T00:50:38;33.67;;;24.70;;
12151;SDS011;6139;51.274;7.128;2023-04-29T00:51:40;33.78;;;24.40;;
12151;SDS011;6139;51.274;7.128;2023-04-29T00:52:41;33.70;;;25.27;;
12151;SDS011;6139;51.274;7.128;2023-04-29T00:53:44;36.38;;;24.95;;
12151;SDS011;6139;51.274;7.128;2023-04-29T00:54:45;33.70;;;25.55;;
12151;SDS011;6139;51.274;7.128;2023-04-29T00:55:49;35.05;;;25.00;;
12151;SDS011;6139;51.274;7.128;2023-04-29T00:56:51;31.45;;;24.33;;
12151;SDS011;6139;51.274;7.128;2023-04-29T00:57:53;34.35;;;25.02;;
12151;SDS011;6139;51.274;7.128;2023-04-29T00:58:55;32.83;;;24.38;;
12151;SDS011;6139;51.274;7.128;2023-04-29T00:59:58;33.83;;;24.42;;
12151;SDS011;6139;51.274;7.128;2023-04-29T01:01:00;30.83;;;22.98;;
12151;SDS011;6139;51.274;7.128;2023-04-29T01:02:03;34.15;;;24.55;;
12151;SDS011;6139;51.274;7.128;2023-04-29T01:03:05;31.40;;;23.75;;
12151;SDS011;6139;51.274;7.128;2023-04-29T01:04:08;33.55;;;24.02;;
12151;SDS011;6139;51.274;7.128;2023-04-29T01:05:09;33.88;;;24.45;;
12151;SDS011;6139;51.274;7.128;2023-04-29T01:07:35;35.00;;;24.27;;
12151;SDS011;6139;51.274;7.128;2023-04-29T01:08:48;32.58;;;23.73;;
12151;SDS011;6139;51.274;7.128;2023-04-29T01:10:09;31.00;;;22.73;;
12151;SDS011;6139;51.274;7.128;2023-04-29T01:11:17;35.55;;;25.25;;
12151;SDS011;6139;51.274;7.128;2023-04-29T01:12:29;34.03;;;23.77;;
12151;SDS011;6139;51.274;7.128;2023-04-29T01:13:36;36.33;;;24.48;;
12151;SDS011;6139;51.274;7.128;2023-04-29T01:14:50;37.03;;;25.48;;
12151;SDS011;6139;51.274;7.128;2023-04-29T01:15:59;37.58;;;26.08;;
12151;SDS011;6139;51.274;7.128;2023-04-29T01:17:04;39.38;;;26.60;;
12151;SDS011;6139;51.274;7.128;2023-04-29T01:18:11;38.92;;;26.48;;
12151;SDS011;6139;51.274;7.128;2023-04-29T01:19:21;37.58;;;26.63;;
12151;SDS011;6139;51.274;7.128;2023-04-29T01:20:40;36.88;;;25.63;;
12151;SDS011;6139;51.274;7.128;2023-04-29T01:21:45;39.10;;;26.30;;
12151;SDS011;6139;51.274;7.128;2023-04-29T01:22:47;40.30;;;27.27;;
12151;SDS011;6139;51.274;7.128;2023-04-29T01:23:51;40.97;;;26.55;;
12151;SDS011;6139;51.274;7.128;2023-04-29T01:24:56;43.00;;;27.85;;
12151;SDS011;6139;51.274;7.128;2023-04-29T01:25:58;40.78;;;26.30;;
12151;SDS011;6139;51.274;7.128;2023-04-29T01:27:20;39.97;;;26.98;;
12151;SDS011;6139;51.274;7.128;2023-04-29T01:28:37;39.38;;;25.83;;
12151;SDS011;6139;51.274;7.128;2023-04-29T01:29:46;34.78;;;24.55;;
12151;SDS011;6139;51.274;7.128;2023-04-29T01:30:55;40.40;;;26.38;;
12151;SDS011;6139;51.274;7.128;2023-04-29T01:32:02;40.03;;;27.05;;
12151;SDS011;6139;51.274;7.128;2023-04-29T01:33:09;38.17;;;26.20;;
12151;SDS011;6139;51.274;7.128;2023-04-29T01:34:17;39.70;;;26.00;;
12151;SDS011;6139;51.274;7.128;2023-04-29T01:35:28;39.83;;;25.88;;
12151;SDS011;6139;51.274;7.128;2023-04-29T01:36:40;36.72;;;23.90;;
12151;SDS011;6139;51.274;7.128;2023-04-29T01:37:54;43.78;;;25.85;;
12151;SDS011;6139;51.274;7.128;2023-04-29T01:39:07;41.88;;;26.92;;
12151;SDS011;6139;51.274;7.128;2023-04-29T01:40:15;39.78;;;26.17;;
12151;SDS011;6139;51.274;7.128;2023-04-29T01:41:33;43.50;;;27.38;;
12151;SDS011;6139;51.274;7.128;2023-04-29T01:42:50;39.83;;;24.90;;
12151;SDS011;6139;51.274;7.128;2023-04-29T01:43:58;39.60;;;25.75;;
12151;SDS011;6139;51.274;7.128;2023-04-29T01:45:04;38.78;;;25.33;;
12151;SDS011;6139;51.274;7.128;2023-04-29T01:46:08;44.67;;;25.63;;
12151;SDS011;6139;51.274;7.128;2023-04-29T01:47:12;40.55;;;26.83;;
12151;SDS011;6139;51.274;7.128;2023-04-29T01:48:17;39.67;;;25.83;;
12151;SDS011;6139;51.274;7.128;2023-04-29T01:49:20;40.45;;;26.50;;
12151;SDS011;6139;51.274;7.128;2023-04-29T01:50:24;40.75;;;26.23;;
12151;SDS011;6139;51.274;7.128;2023-04-29T01:51:26;39.60;;;25.13;;
12151;SDS011;6139;51.274;7.128;2023-04-29T01:52:28;43.53;;;26.77;;
12151;SDS011;6139;51.274;7.128;2023-04-29T01:53:30;44.40;;;27.15;;
12151;SDS011;6139;51.274;7.128;2023-04-29T01:54:33;41.88;;;27.50;;
12151;SDS011;6139;51.274;7.128;2023-04-29T01:55:36;41.28;;;26.40;;
12151;SDS011;6139;51.274;7.128;2023-04-29T01:57:00;41.42;;;26.30;;
12151;SDS011;6139;51.274;7.128;2023-04-29T01:58:22;44.72;;;27.85;;
12151;SDS011;6139;51.274;7.128;2023-04-29T01:59:23;41.28;;;27.30;;
12151;SDS011;6139;51.274;7.128;2023-04-29T02:00:37;43.85;;;27.77;;
12151;SDS011;6139;51.274;7.128;2023-04-29T02:01:38;43.60;;;28.00;;
12151;SDS011;6139;51.274;7.128;2023-04-29T02:02:40;45.47;;;27.38;;
12151;SDS011;6139;51.274;7.128;2023-04-29T02:03:52;44.45;;;28.23;;
12151;SDS011;6139;51.274;7.128;2023-04-29T02:04:54;47.83;;;28.77;;
12151;SDS011;6139;51.274;7.128;2023-04-29T02:05:55;48.63;;;29.48;;
12151;SDS011;6139;51.274;7.128;2023-04-29T02:10:00;44.75;;;27.23;;
12151;SDS011;6139;51.274;7.128;2023-04-29T02:11:06;45.25;;;28.17;;
12151;SDS011;6139;51.274;7.128;2023-04-29T02:12:12;49.92;;;28.95;;
12151;SDS011;6139;51.274;7.128;2023-04-29T02:13:14;48.10;;;28.52;;
12151;SDS011;6139;51.274;7.128;2023-04-29T02:14:15;51.70;;;29.85;;
12151;SDS011;6139;51.274;7.128;2023-04-29T02:15:17;47.72;;;29.73;;
12151;SDS011;6139;51.274;7.128;2023-04-29T02:16:19;48.35;;;29.20;;
12151;SDS011;6139;51.274;7.128;2023-04-29T02:17:41;47.72;;;29.05;;
12151;SDS011;6139;51.274;7.128;2023-04-29T02:18:43;48.08;;;29.08;;
12151;SDS011;6139;51.274;7.128;2023-04-29T02:19:43;53.38;;;31.52;;
12151;SDS011;6139;51.274;7.128;2023-04-29T02:20:45;58.92;;;32.25;;
12151;SDS011;6139;51.274;7.128;2023-04-29T02:21:46;48.58;;;30.25;;
12151;SDS011;6139;51.274;7.128;2023-04-29T02:22:48;56.47;;;32.13;;
12151;SDS011;6139;51.274;7.128;2023-04-29T02:23:49;54.08;;;32.30;;
12151;SDS011;6139;51.274;7.128;2023-04-29T02:24:56;48.58;;;29.23;;
12151;SDS011;6139;51.274;7.128;2023-04-29T02:25:58;45.30;;;29.40;;
12151;SDS011;6139;51.274;7.128;2023-04-29T02:27:03;48.78;;;29.30;;
12151;SDS011;6139;51.274;7.128;2023-04-29T02:28:06;44.33;;;27.48;;
12151;SDS011;6139;51.274;7.128;2023-04-29T02:29:08;45.63;;;26.48;;
12151;SDS011;6139;51.274;7.128;2023-04-29T02:30:10;45.42;;;27.35;;
12151;SDS011;6139;51.274;7.128;2023-04-29T02:31:14;44.45;;;26.40;;
12151;SDS011;6139;51.274;7.128;2023-04-29T02:32:18;44.33;;;26.27;;
12151;SDS011;6139;51.274;7.128;2023-04-29T02:33:20;40.50;;;24.40;;
12151;SDS011;6139;51.274;7.128;2023-04-29T02:34:21;38.95;;;24.40;;
12151;SDS011;6139;51.274;7.128;2023-04-29T02:35:23;38.80;;;24.88;;
12151;SDS011;6139;51.274;7.128;2023-04-29T02:36:24;39.80;;;24.23;;
12151;SDS011;6139;51.274;7.128;2023-04-29T02:37:26;40.90;;;24.67;;
12151;SDS011;6139;51.274;7.128;2023-04-29T02:38:27;36.60;;;24.48;;
12151;SDS011;6139;51.274;7.128;2023-04-29T02:39:29;39.88;;;24.73;;
12151;SDS011;6139;51.274;7.128;2023-04-29T02:40:30;39.17;;;25.63;;
12151;SDS011;6139;51.274;7.128;2023-04-29T02:41:34;39.05;;;24.83;;
12151;SDS011;6139;51.274;7.128;2023-04-29T02:42:35;42.55;;;26.17;;
12151;SDS011;6139;51.274;7.128;2023-04-29T02:43:37;44.63;;;27.75;;
12151;SDS011;6139;51.274;7.128;2023-04-29T02:44:38;44.60;;;29.00;;
12151;SDS011;6139;51.274;7.128;2023-04-29T02:45:42;42.80;;;27.27;;
12151;SDS011;6139;51.274;7.128;2023-04-29T02:46:43;48.83;;;29.67;;
12151;SDS011;6139;51.274;7.128;2023-04-29T02:48:04;51.40;;;29.98;;
12151;SDS011;6139;51.274;7.128;2023-04-29T02:49:24;50.55;;;29.63;;
12151;SDS011;6139;51.274;7.128;2023-04-29T02:50:45;54.38;;;31.20;;
12151;SDS011;6139;51.274;7.128;2023-04-29T02:52:05;51.78;;;29.65;;
12151;SDS011;6139;51.274;7.128;2023-04-29T02:53:10;46.60;;;29.42;;
12151;SDS011;6139;51.274;7.128;2023-04-29T02:54:11;57.42;;;30.75;;
12151;SDS011;6139;51.274;7.128;2023-04-29T02:55:13;52.83;;;31.33;;
12151;SDS011;6139;51.274;7.128;2023-04-29T02:56:14;54.78;;;31.55;;
12151;SDS011;6139;51.274;7.128;2023-04-29T02:57:17;53.00;;;30.40;;
12151;SDS011;6139;51.274;7.128;2023-04-29T02:58:18;53.10;;;30.88;;
12151;SDS011;6139;51.274;7.128;2023-04-29T02:59:20;52.70;;;29.77;;
12151;SDS011;6139;51.274;7.128;2023-04-29T03:00:21;56.15;;;31.55;;
12151;SDS011;6139;51.274;7.128;2023-04-29T03:01:23;54.53;;;31.45;;
12151;SDS011;6139;51.274;7.128;2023-04-29T03:02:25;53.58;;;31.30;;
12151;SDS011;6139;51.274;7.128;2023-04-29T03:03:33;53.97;;;29.92;;
12151;SDS011;6139;51.274;7.128;2023-04-29T03:04:34;53.92;;;30.35;;
12151;SDS011;6139;51.274;7.128;2023-04-29T03:05:36;46.72;;;27.65;;
12151;SDS011;6139;51.274;7.128;2023-04-29T03:06:37;47.75;;;28.08;;
12151;SDS011;6139;51.274;7.128;2023-04-29T03:07:39;43.20;;;27.48;;
12151;SDS011;6139;51.274;7.128;2023-04-29T03:08:40;42.20;;;24.50;;
12151;SDS011;6139;51.274;7.128;2023-04-29T03:09:42;45.58;;;28.00;;
12151;SDS011;6139;51.274;7.128;2023-04-29T03:10:43;42.88;;;25.58;;
12151;SDS011;6139;51.274;7.128;2023-04-29T03:11:45;42.88;;;25.00;;
12151;SDS011;6139;51.274;7.128;2023-04-29T03:12:48;47.85;;;26.73;;
12151;SDS011;6139;51.274;7.128;2023-04-29T03:13:50;44.45;;;26.20;;
12151;SDS011;6139;51.274;7.128;2023-04-29T03:14:51;42.72;;;25.83;;
12151;SDS011;6139;51.274;7.128;2023-04-29T03:15:53;43.13;;;25.58;;
12151;SDS011;6139;51.274;7.128;2023-04-29T03:16:57;41.83;;;25.15;;
12151;SDS011;6139;51.274;7.128;2023-04-29T03:17:59;39.50;;;23.63;;
12151;SDS011;6139;51.274;7.128;2023-04-29T03:19:01;41.70;;;24.60;;
12151;SDS011;6139;51.274;7.128;2023-04-29T03:20:03;42.63;;;24.02;;
12151;SDS011;6139;51.274;7.128;2023-04-29T03:21:05;39.90;;;23.60;;
12151;SDS011;6139;51.274;7.128;2023-04-29T03:22:07;40.80;;;23.30;;
12151;SDS011;6139;51.274;7.128;2023-04-29T03:23:11;39.10;;;22.42;;
12151;SDS011;6139;51.274;7.128;2023-04-29T03:24:13;38.88;;;22.75;;
12151;SDS011;6139;51.274;7.128;2023-04-29T03:25:15;38.95;;;22.92;;
12151;SDS011;6139;51.274;7.128;2023-04-29T03:26:17;39.58;;;23.65;;
12151;SDS011;6139;51.274;7.128;2023-04-29T03:27:19;39.25;;;23.25;;
12151;SDS011;6139;51.274;7.128;2023-04-29T03:28:23;38.28;;;23.00;;
12151;SDS011;6139;51.274;7.128;2023-04-29T03:29:24;37.22;;;21.52;;
12151;SDS011;6139;51.274;7.128;2023-04-29T03:30:26;35.28;;;21.75;;
12151;SDS011;6139;51.274;7.128;2023-04-29T03:31:30;37.20;;;22.67;;
12151;SDS011;6139;51.274;7.128;2023-04-29T03:32:33;39.63;;;24.45;;
12151;SDS011;6139;51.274;7.128;2023-04-29T03:33:34;37.72;;;24.00;;
12151;SDS011;6139;51.274;7.128;2023-04-29T03:34:36;37.75;;;24.70;;
12151;SDS011;6139;51.274;7.128;2023-04-29T03:36:12;40.50;;;23.70;;
12151;SDS011;6139;51.274;7.128;2023-04-29T03:37:25;36.42;;;22.77;;
12151;SDS011;6139;51.274;7.128;2023-04-29T03:38:34;34.72;;;22.90;;
12151;SDS011;6139;51.274;7.128;2023-04-29T03:39:37;41.53;;;25.17;;
12151;SDS011;6139;51.274;7.128;2023-04-29T03:40:38;34.25;;;23.73;;
12151;SDS011;6139;51.274;7.128;2023-04-29T03:41:40;38.65;;;25.48;;
12151;SDS011;6139;51.274;7.128;2023-04-29T03:42:42;37.83;;;24.10;;
12151;SDS011;6139;51.274;7.128;2023-04-29T03:43:45;38.60;;;23.58;;
12151;SDS011;6139;51.274;7.128;2023-04-29T03:44:46;36.47;;;23.50;;
12151;SDS011;6139;51.274;7.128;2023-04-29T03:45:48;36.03;;;23.67;;
12151;SDS011;6139;51.274;7.128;2023-04-29T03:46:53;35.13;;;24.73;;
12151;SDS011;6139;51.274;7.128;2023-04-29T03:47:56;35.90;;;22.98;;
12151;SDS011;6139;51.274;7.128;2023-04-29T03:48:57;33.65;;;22.48;;
12151;SDS011;6139;51.274;7.128;2023-04-29T03:49:59;32.28;;;21.30;;
12151;SDS011;6139;51.274;7.128;2023-04-29T03:51:00;34.45;;;23.02;;
12151;SDS011;6139;51.274;7.128;2023-04-29T03:52:02;33.88;;;22.80;;
12151;SDS011;6139;51.274;7.128;2023-04-29T03:53:04;33.92;;;22.70;;
12151;SDS011;6139;51.274;7.128;2023-04-29T03:54:06;34.80;;;22.40;;
12151;SDS011;6139;51.274;7.128;2023-04-29T03:55:11;33.95;;;23.02;;
12151;SDS011;6139;51.274;7.128;2023-04-29T03:56:13;32.53;;;22.52;;
12151;SDS011;6139;51.274;7.128;2023-04-29T03:57:14;31.20;;;21.13;;
12151;SDS011;6139;51.274;7.128;2023-04-29T03:58:16;30.80;;;21.45;;
12151;SDS011;6139;51.274;7.128;2023-04-29T03:59:19;27.48;;;20.20;;
12151;SDS011;6139;51.274;7.128;2023-04-29T04:00:22;32.05;;;21.70;;
12151;SDS011;6139;51.274;7.128;2023-04-29T04:01:28;29.98;;;20.90;;
12151;SDS011;6139;51.274;7.128;2023-04-29T04:02:30;29.95;;;20.75;;
12151;SDS011;6139;51.274;7.128;2023-04-29T04:03:31;29.95;;;20.92;;
12151;SDS011;6139;51.274;7.128;2023-04-29T04:04:33;28.48;;;20.42;;
12151;SDS011;6139;51.274;7.128;2023-04-29T04:05:34;26.70;;;20.67;;
12151;SDS011;6139;51.274;7.128;2023-04-29T04:06:41;29.67;;;19.92;;
12151;SDS011;6139;51.274;7.128;2023-04-29T04:07:43;27.67;;;19.45;;
12151;SDS011;6139;51.274;7.128;2023-04-29T04:09:08;26.90;;;18.77;;
12151;SDS011;6139;51.274;7.128;2023-04-29T04:10:09;26.23;;;18.98;;
12151;SDS011;6139;51.274;7.128;2023-04-29T04:11:11;30.10;;;20.60;;
12151;SDS011;6139;51.274;7.128;2023-04-29T04:12:34;26.00;;;19.02;;
12151;SDS011;6139;51.274;7.128;2023-04-29T04:13:36;27.98;;;19.58;;
12151;SDS011;6139;51.274;7.128;2023-04-29T04:14:39;28.38;;;19.58;;
12151;SDS011;6139;51.274;7.128;2023-04-29T04:15:41;30.55;;;20.67;;
12151;SDS011;6139;51.274;7.128;2023-04-29T04:16:48;30.42;;;19.67;;
12151;SDS011;6139;51.274;7.128;2023-04-29T04:17:50;24.63;;;17.90;;
12151;SDS011;6139;51.274;7.128;2023-04-29T04:18:52;26.20;;;18.42;;
12151;SDS011;6139;51.274;7.128;2023-04-29T04:19:54;24.65;;;18.27;;
12151;SDS011;6139;51.274;7.128;2023-04-29T04:20:55;27.92;;;19.58;;
12151;SDS011;6139;51.274;7.128;2023-04-29T04:21:59;27.25;;;19.40;;
12151;SDS011;6139;51.274;7.128;2023-04-29T04:23:02;27.63;;;19.02;;
12151;SDS011;6139;51.274;7.128;2023-04-29T04:24:04;26.63;;;19.35;;
12151;SDS011;6139;51.274;7.128;2023-04-29T04:25:06;26.10;;;18.77;;
12151;SDS011;6139;51.274;7.128;2023-04-29T04:26:09;28.70;;;19.77;;
12151;SDS011;6139;51.274;7.128;2023-04-29T04:27:29;26.98;;;19.75;;
12151;SDS011;6139;51.274;7.128;2023-04-29T04:28:35;29.40;;;21.38;;
12151;SDS011;6139;51.274;7.128;2023-04-29T04:29:44;26.83;;;20.13;;
12151;SDS011;6139;51.274;7.128;2023-04-29T04:30:50;29.77;;;21.67;;
12151;SDS011;6139;51.274;7.128;2023-04-29T04:31:51;28.67;;;21.67;;
12151;SDS011;6139;51.274;7.128;2023-04-29T04:32:54;28.73;;;20.60;;
12151;SDS011;6139;51.274;7.128;2023-04-29T04:33:55;27.75;;;19.50;;
12151;SDS011;6139;51.274;7.128;2023-04-29T04:34:59;29.63;;;21.83;;
12151;SDS011;6139;51.274;7.128;2023-04-29T04:36:00;27.58;;;20.15;;
12151;SDS011;6139;51.274;7.128;2023-04-29T04:37:02;27.83;;;20.27;;
12151;SDS011;6139;51.274;7.128;2023-04-29T04:38:04;27.77;;;20.27;;
12151;SDS011;6139;51.274;7.128;2023-04-29T04:39:06;26.25;;;19.83;;
12151;SDS011;6139;51.274;7.128;2023-04-29T04:40:08;28.88;;;20.20;;
12151;SDS011;6139;51.274;7.128;2023-04-29T04:41:25;28.20;;;19.90;;
12151;SDS011;6139;51.274;7.128;2023-04-29T04:42:31;28.90;;;19.88;;
12151;SDS011;6139;51.274;7.128;2023-04-29T04:43:32;24.10;;;18.23;;
12151;SDS011;6139;51.274;7.128;2023-04-29T04:44:35;27.60;;;20.33;;
12151;SDS011;6139;51.274;7.128;2023-04-29T04:45:42;23.50;;;18.95;;
12151;SDS011;6139;51.274;7.128;2023-04-29T04:46:45;24.83;;;18.63;;
12151;SDS011;6139;51.274;7.128;2023-04-29T04:47:49;24.23;;;17.90;;
12151;SDS011;6139;51.274;7.128;2023-04-29T04:48:54;25.85;;;17.88;;
12151;SDS011;6139;51.274;7.128;2023-04-29T04:49:55;26.58;;;17.70;;
12151;SDS011;6139;51.274;7.128;2023-04-29T04:50:57;23.85;;;17.30;;
12151;SDS011;6139;51.274;7.128;2023-04-29T04:52:00;23.30;;;17.63;;
12151;SDS011;6139;51.274;7.128;2023-04-29T04:53:02;24.23;;;18.30;;
12151;SDS011;6139;51.274;7.128;2023-04-29T04:54:17;25.45;;;18.25;;
12151;SDS011;6139;51.274;7.128;2023-04-29T04:55:19;23.27;;;18.13;;
12151;SDS011;6139;51.274;7.128;2023-04-29T04:56:23;25.10;;;18.55;;
12151;SDS011;6139;51.274;7.128;2023-04-29T04:57:25;23.35;;;17.63;;
12151;SDS011;6139;51.274;7.128;2023-04-29T04:58:29;25.42;;;17.70;;
12151;SDS011;6139;51.274;7.128;2023-04-29T04:59:32;23.58;;;17.08;;
12151;SDS011;6139;51.274;7.128;2023-04-29T05:00:33;24.70;;;18.30;;
12151;SDS011;6139;51.274;7.128;2023-04-29T05:01:37;25.10;;;18.13;;
12151;SDS011;6139;51.274;7.128;2023-04-29T05:02:38;24.48;;;17.48;;
12151;SDS011;6139;51.274;7.128;2023-04-29T05:03:40;26.45;;;17.20;;
12151;SDS011;6139;51.274;7.128;2023-04-29T05:04:41;24.95;;;17.73;;
12151;SDS011;6139;51.274;7.128;2023-04-29T05:05:44;25.13;;;18.30;;
12151;SDS011;6139;51.274;7.128;2023-04-29T05:06:45;25.13;;;17.90;;
12151;SDS011;6139;51.274;7.128;2023-04-29T05:07:48;22.80;;;17.08;;
12151;SDS011;6139;51.274;7.128;2023-04-29T05:08:49;26.20;;;18.80;;
12151;SDS011;6139;51.274;7.128;2023-04-29T05:09:51;25.10;;;18.65;;
12151;SDS011;6139;51.274;7.128;2023-04-29T05:10:52;23.08;;;18.27;;
12151;SDS011;6139;51.274;7.128;2023-04-29T05:11:55;25.20;;;18.52;;
12151;SDS011;6139;51.274;7.128;2023-04-29T05:12:59;24.45;;;17.05;;
12151;SDS011;6139;51.274;7.128;2023-04-29T05:14:01;25.15;;;18.35;;
12151;SDS011;6139;51.274;7.128;2023-04-29T05:15:02;23.13;;;17.23;;
12151;SDS011;6139;51.274;7.128;2023-04-29T05:16:05;23.33;;;17.20;;
12151;SDS011;6139;51.274;7.128;2023-04-29T05:17:08;24.23;;;17.55;;
12151;SDS011;6139;51.274;7.128;2023-04-29T05:18:10;23.50;;;17.65;;
12151;SDS011;6139;51.274;7.128;2023-04-29T05:19:13;23.63;;;17.42;;
12151;SDS011;6139;51.274;7.128;2023-04-29T05:20:16;22.98;;;17.50;;
12151;SDS011;6139;51.274;7.128;2023-04-29T05:21:17;23.73;;;16.98;;
12151;SDS011;6139;51.274;7.128;2023-04-29T05:22:20;24.67;;;17.45;;
12151;SDS011;6139;51.274;7.128;2023-04-29T05:23:21;25.23;;;17.67;;
12151;SDS011;6139;51.274;7.128;2023-04-29T05:24:24;25.83;;;18.08;;
12151;SDS011;6139;51.274;7.128;2023-04-29T05:25:25;24.33;;;16.80;;
12151;SDS011;6139;51.274;7.128;2023-04-29T05:26:29;24.13;;;16.50;;
12151;SDS011;6139;51.274;7.128;2023-04-29T05:27:33;22.15;;;15.45;;
12151;SDS011;6139;51.274;7.128;2023-04-29T05:28:37;23.02;;;15.32;;
12151;SDS011;6139;51.274;7.128;2023-04-29T05:29:39;21.65;;;15.60;;
12151;SDS011;6139;51.274;7.128;2023-04-29T05:30:41;21.00;;;14.82;;
12151;SDS011;6139;51.274;7.128;2023-04-29T05:31:43;23.05;;;15.32;;
12151;SDS011;6139;51.274;7.128;2023-04-29T05:32:47;22.15;;;15.57;;
12151;SDS011;6139;51.274;7.128;2023-04-29T05:33:50;22.58;;;15.05;;
12151;SDS011;6139;51.274;7.128;2023-04-29T05:34:52;22.92;;;15.00;;
12151;SDS011;6139;51.274;7.128;2023-04-29T05:35:53;21.92;;;15.30;;
12151;SDS011;6139;51.274;7.128;2023-04-29T05:36:55;21.80;;;14.77;;
12151;SDS011;6139;51.274;7.128;2023-04-29T05:37:57;22.58;;;15.82;;
12151;SDS011;6139;51.274;7.128;2023-04-29T05:39:14;20.77;;;13.77;;
12151;SDS011;6139;51.274;7.128;2023-04-29T05:40:16;22.35;;;15.07;;
12151;SDS011;6139;51.274;7.128;2023-04-29T05:41:19;23.45;;;15.57;;
12151;SDS011;6139;51.274;7.128;2023-04-29T05:42:31;19.00;;;13.52;;
12151;SDS011;6139;51.274;7.128;2023-04-29T05:43:33;21.20;;;15.23;;
12151;SDS011;6139;51.274;7.128;2023-04-29T05:44:34;20.70;;;13.80;;
12151;SDS011;6139;51.274;7.128;2023-04-29T05:45:36;21.10;;;14.88;;
12151;SDS011;6139;51.274;7.128;2023-04-29T05:46:37;20.50;;;14.38;;
12151;SDS011;6139;51.274;7.128;2023-04-29T05:47:39;20.90;;;14.43;;
12151;SDS011;6139;51.274;7.128;2023-04-29T05:48:41;22.08;;;14.90;;
12151;SDS011;6139;51.274;7.128;2023-04-29T05:49:45;20.17;;;14.88;;
12151;SDS011;6139;51.274;7.128;2023-04-29T05:50:46;20.48;;;14.73;;
12151;SDS011;6139;51.274;7.128;2023-04-29T05:51:48;20.27;;;14.32;;
12151;SDS011;6139;51.274;7.128;2023-04-29T05:52:49;22.15;;;15.40;;
12151;SDS011;6139;51.274;7.128;2023-04-29T05:53:54;22.05;;;14.70;;
12151;SDS011;6139;51.274;7.128;2023-04-29T05:54:55;19.80;;;14.43;;
12151;SDS011;6139;51.274;7.128;2023-04-29T05:55:57;20.23;;;14.82;;
12151;SDS011;6139;51.274;7.128;2023-04-29T05:56:58;20.88;;;14.63;;
12151;SDS011;6139;51.274;7.128;2023-04-29T05:58:01;20.60;;;14.27;;
12151;SDS011;6139;51.274;7.128;2023-04-29T05:59:02;20.17;;;14.95;;
12151;SDS011;6139;51.274;7.128;2023-04-29T06:00:05;21.75;;;14.88;;
12151;SDS011;6139;51.274;7.128;2023-04-29T06:01:14;20.48;;;14.65;;
12151;SDS011;6139;51.274;7.128;2023-04-29T06:02:16;22.50;;;15.32;;
12151;SDS011;6139;51.274;7.128;2023-04-29T06:03:17;21.77;;;15.13;;
12151;SDS011;6139;51.274;7.128;2023-04-29T06:04:24;23.73;;;15.75;;
12151;SDS011;6139;51.274;7.128;2023-04-29T06:05:45;21.45;;;15.38;;
12151;SDS011;6139;51.274;7.128;2023-04-29T06:07:05;20.38;;;14.48;;
12151;SDS011;6139;51.274;7.128;2023-04-29T06:08:27;22.65;;;15.90;;
12151;SDS011;6139;51.274;7.128;2023-04-29T06:09:35;23.70;;;16.42;;
12151;SDS011;6139;51.274;7.128;2023-04-29T06:10:37;21.30;;;15.90;;
12151;SDS011;6139;51.274;7.128;2023-04-29T06:11:38;22.25;;;16.77;;
12151;SDS011;6139;51.274;7.128;2023-04-29T06:12:40;22.25;;;16.40;;
12151;SDS011;6139;51.274;7.128;2023-04-29T06:13:41;24.05;;;16.42;;
12151;SDS011;6139;51.274;7.128;2023-04-29T06:14:43;24.10;;;16.42;;
12151;SDS011;6139;51.274;7.128;2023-04-29T06:15:45;24.23;;;17.38;;
12151;SDS011;6139;51.274;7.128;2023-04-29T06:16:48;23.45;;;16.42;;
12151;SDS011;6139;51.274;7.128;2023-04-29T06:17:49;22.25;;;16.98;;
12151;SDS011;6139;51.274;7.128;2023-04-29T06:18:51;21.98;;;16.88;;
12151;SDS011;6139;51.274;7.128;2023-04-29T06:19:53;23.63;;;16.25;;
12151;SDS011;6139;51.274;7.128;2023-04-29T06:20:57;21.65;;;16.85;;
12151;SDS011;6139;51.274;7.128;2023-04-29T06:21:58;22.92;;;17.35;;
12151;SDS011;6139;51.274;7.128;2023-04-29T06:23:00;23.98;;;17.80;;
12151;SDS011;6139;51.274;7.128;2023-04-29T06:24:02;21.48;;;16.60;;